パース の空港の天気 - METARとTAF

パース空港 ( YPPH / PER ) - オーストラリア 西オーストラリア州パース
飛行場実況気象(Metar)
観測時間05/29 06:30 AWST (05/28 22:30 UTC)
風向・風速静穏 0m/s
視程10km以上
天気現象
少しの雲 雲底高度 1370m
気温4℃
湿度93%
気圧1019hPa
METARYPPH 282230Z 00000KT 9999 FEW045 04/03 Q1019
過去の天気等 Google飛行場航空写真 Wunderground天気予報

過去48時間のMETAR

飛行場予報(TAF)
発表時間: 5/29 06:41 AWST (5/28 22:41 UTC)
予報対象時間: 29日6時 AWST ~ 30日8時 AWST
風向・風速南南東 4m/s
視程10km以上
少しの雲 雲底高度 1220m
29日10時 AWST から
風向・風速南 7m/s
視程10km以上
全天の4割程度の雲 雲底高度 1220m
29日19時 AWST から
風向・風速南南東 3m/s
視程10km以上
全天の4割程度の雲 雲底高度 1070m
TAF AMD YPPH 282241Z 2822/3000 16008KT 9999 FEW040
FM290200 17013KT 9999 SCT040
FM291100 15006KT 9999 SCT035